createdAt,value
2022-07-29T00:08:18.279Z,24.91
2022-07-29T00:13:10.729Z,24.86
2022-07-29T00:18:03.453Z,24.86
2022-07-29T00:22:56.096Z,24.86
2022-07-29T00:27:48.708Z,24.85
2022-07-29T00:32:41.460Z,24.85
2022-07-29T00:37:34.220Z,24.88
2022-07-29T00:42:26.593Z,24.87
2022-07-29T00:47:19.018Z,24.79
2022-07-29T00:52:11.686Z,24.8
2022-07-29T00:57:04.257Z,24.82
2022-07-29T01:01:56.826Z,24.82
2022-07-29T01:06:49.544Z,24.8
2022-07-29T01:11:42.106Z,24.8
2022-07-29T01:16:34.721Z,24.81
2022-07-29T01:21:27.255Z,24.77
2022-07-29T01:26:20.360Z,24.75
2022-07-29T01:31:13.392Z,24.73
2022-07-29T01:36:04.798Z,24.75
2022-07-29T01:40:57.800Z,24.74
2022-07-29T01:45:50.334Z,24.7
2022-07-29T01:50:42.993Z,24.73
2022-07-29T01:55:35.656Z,24.69
2022-07-29T02:00:27.991Z,24.69
2022-07-29T02:05:21.013Z,24.72
2022-07-29T02:10:13.539Z,24.66
2022-07-29T02:15:06.399Z,24.72
2022-07-29T02:19:58.862Z,24.65
2022-07-29T02:24:51.704Z,24.59
2022-07-29T02:29:44.169Z,24.6
2022-07-29T02:34:36.967Z,24.59
2022-07-29T02:39:29.646Z,24.62
2022-07-29T02:44:22.339Z,24.56
2022-07-29T02:49:15.245Z,24.59
2022-07-29T02:54:07.437Z,24.51
2022-07-29T02:58:59.901Z,24.49
2022-07-29T03:03:52.456Z,24.54
2022-07-29T03:08:44.685Z,24.52
2022-07-29T03:13:37.397Z,24.51
2022-07-29T03:18:29.856Z,24.5
2022-07-29T03:23:22.345Z,24.49
2022-07-29T03:28:14.891Z,24.48
2022-07-29T03:33:13.242Z,24.51
2022-07-29T03:38:00.375Z,24.46
2022-07-29T03:42:52.836Z,24.46
2022-07-29T03:47:50.545Z,24.49
2022-07-29T03:52:38.175Z,24.47
2022-07-29T03:57:30.785Z,24.44
2022-07-29T04:02:25.268Z,24.42
2022-07-29T04:07:15.879Z,24.42
2022-07-29T04:12:08.269Z,24.39
2022-07-29T04:17:00.718Z,24.29
2022-07-29T04:21:53.365Z,24
2022-07-29T04:26:45.381Z,23.78
2022-07-29T04:31:37.954Z,23.61
2022-07-29T04:36:30.486Z,23.52
2022-07-29T04:41:23.043Z,23.42
2022-07-29T04:46:15.636Z,23.33
2022-07-29T04:51:07.937Z,23.16
2022-07-29T04:56:00.365Z,23.25
2022-07-29T05:00:52.937Z,23.04
2022-07-29T05:05:45.372Z,23.13
2022-07-29T05:10:37.667Z,23.16
2022-07-29T05:15:30.054Z,22.93
2022-07-29T05:20:22.053Z,22.99
2022-07-29T05:25:14.144Z,22.92
2022-07-29T05:30:05.924Z,22.87
2022-07-29T05:34:58.201Z,22.75
2022-07-29T05:39:56.491Z,22.67
2022-07-29T05:44:43.466Z,22.77
2022-07-29T05:54:28.167Z,22.82
2022-07-29T06:04:12.514Z,22.9
2022-07-29T06:09:12.387Z,22.81
2022-07-29T06:13:57.176Z,22.48
2022-07-29T06:18:49.672Z,22.45
2022-07-29T06:23:42.995Z,23.02
2022-07-29T06:28:35.696Z,23.1
2022-07-29T06:33:28.739Z,23.24
2022-07-29T06:38:30.597Z,23.26
2022-07-29T06:43:13.888Z,23.29
2022-07-29T06:48:06.297Z,23.33
2022-07-29T06:52:58.917Z,23.32
2022-07-29T06:57:51.318Z,23.31
2022-07-29T07:02:43.901Z,23.34
2022-07-29T07:07:36.299Z,23.4
2022-07-29T07:12:29.067Z,23.38
2022-07-29T07:17:21.630Z,23.37
2022-07-29T07:22:14.046Z,23.35
2022-07-29T07:27:06.623Z,23.4
2022-07-29T07:32:01.006Z,23.41
2022-07-29T07:36:52.002Z,23.45
2022-07-29T07:41:44.560Z,23.48
2022-07-29T07:46:37.130Z,23.47
2022-07-29T07:51:29.741Z,23.46
2022-07-29T07:56:22.293Z,23.5
2022-07-29T08:01:14.990Z,23.54
2022-07-29T08:06:07.348Z,23.56
2022-07-29T08:10:53.899Z,23.57
2022-07-29T08:15:50.310Z,23.62
2022-07-29T08:20:42.846Z,23.65
2022-07-29T08:25:30.829Z,23.7
2022-07-29T08:30:23.415Z,23.75
2022-07-29T08:35:19.221Z,23.76
2022-07-29T08:40:11.490Z,23.77
2022-07-29T08:45:04.121Z,23.86
2022-07-29T08:49:56.700Z,23.92
2022-07-29T08:54:49.311Z,23.98
2022-07-29T08:59:42.026Z,24.05
2022-07-29T09:04:34.730Z,24.09
2022-07-29T09:09:27.409Z,24.13
2022-07-29T09:14:20.152Z,24.19
2022-07-29T09:19:12.663Z,24.23
2022-07-29T09:24:05.095Z,24.29
2022-07-29T09:28:57.915Z,24.35
2022-07-29T09:33:50.272Z,24.4
2022-07-29T09:38:42.770Z,24.46
2022-07-29T09:43:35.295Z,24.5
2022-07-29T09:48:27.890Z,24.55
2022-07-29T09:53:20.631Z,24.62
2022-07-29T09:58:13.031Z,24.74
2022-07-29T10:03:05.705Z,24.79
2022-07-29T10:07:58.326Z,24.85
2022-07-29T10:12:52.813Z,24.92
2022-07-29T10:17:45.325Z,25.04
2022-07-29T10:22:52.248Z,25.06
2022-07-29T10:27:30.689Z,25.21
2022-07-29T10:32:23.385Z,25.23
2022-07-29T10:37:15.582Z,25.29
2022-07-29T10:42:08.162Z,25.33
2022-07-29T10:47:00.951Z,25.34
2022-07-29T10:51:53.729Z,25.38
2022-07-29T10:56:45.881Z,25.38
2022-07-29T11:01:39.202Z,25.41
2022-07-29T11:06:31.173Z,25.41
2022-07-29T11:11:23.858Z,25.45
2022-07-29T11:16:16.663Z,25.47
2022-07-29T11:21:09.192Z,25.48
2022-07-29T11:26:02.053Z,25.5
2022-07-29T11:30:54.449Z,25.5
2022-07-29T11:35:46.857Z,25.48
2022-07-29T11:40:39.571Z,25.51
2022-07-29T11:45:44.562Z,25.5
2022-07-29T11:50:26.889Z,25.52
2022-07-29T11:55:17.216Z,25.53
2022-07-29T12:00:12.385Z,25.54
2022-07-29T12:05:02.306Z,25.52
2022-07-29T12:09:56.759Z,25.54
2022-07-29T12:14:47.607Z,25.53
2022-07-29T12:19:40.043Z,25.52
2022-07-29T12:24:32.510Z,25.53
2022-07-29T12:29:33.588Z,25.52
2022-07-29T12:34:17.984Z,25.54
2022-07-29T12:39:10.844Z,25.56
2022-07-29T12:44:03.455Z,25.57
2022-07-29T12:48:56.348Z,25.57
2022-07-29T12:58:41.752Z,25.61
2022-07-29T13:08:27.095Z,25.62
2022-07-29T13:13:19.552Z,25.64
2022-07-29T13:18:13.737Z,25.65
2022-07-29T13:23:04.772Z,25.67
2022-07-29T13:27:57.343Z,25.69
2022-07-29T13:32:50.179Z,25.7
2022-07-29T13:37:42.641Z,25.71
2022-07-29T13:42:35.176Z,25.72
2022-07-29T13:47:31.934Z,25.74
2022-07-29T13:52:20.464Z,25.76
2022-07-29T13:57:12.935Z,25.77
2022-07-29T14:02:05.678Z,25.8
2022-07-29T14:06:58.271Z,25.8
2022-07-29T14:11:50.900Z,25.82
2022-07-29T14:16:47.679Z,25.85
2022-07-29T14:21:36.409Z,25.88
2022-07-29T14:26:28.863Z,25.89
2022-07-29T14:31:21.594Z,25.91
2022-07-29T14:36:16.232Z,25.95
2022-07-29T14:41:08.477Z,26
2022-07-29T14:46:05.278Z,26.02
2022-07-29T14:50:54.362Z,26.05
2022-07-29T14:55:47.097Z,26.08
2022-07-29T15:00:39.358Z,26.11
2022-07-29T15:05:31.993Z,26.14
2022-07-29T15:10:24.939Z,26.16
2022-07-29T15:15:17.160Z,26.19
2022-07-29T15:20:09.811Z,26.21
2022-07-29T15:25:02.444Z,26.24
2022-07-29T15:29:55.149Z,26.27
2022-07-29T15:34:47.893Z,26.31
2022-07-29T15:39:40.571Z,26.33
2022-07-29T15:44:33.315Z,26.36
2022-07-29T15:49:26.214Z,26.37
2022-07-29T15:54:18.901Z,26.38
2022-07-29T15:59:11.542Z,26.38
2022-07-29T16:04:04.013Z,26.4
2022-07-29T16:08:56.724Z,26.41
2022-07-29T16:13:49.540Z,26.43
2022-07-29T16:18:42.241Z,26.44
2022-07-29T16:23:34.984Z,26.45
2022-07-29T16:28:27.529Z,26.46
2022-07-29T16:33:20.227Z,26.44
2022-07-29T16:38:12.933Z,26.46
2022-07-29T16:43:05.487Z,26.44
2022-07-29T16:48:00.479Z,26.44
2022-07-29T16:52:50.669Z,26.45
2022-07-29T16:57:43.562Z,26.46
2022-07-29T17:02:36.033Z,26.48
2022-07-29T17:07:28.477Z,26.47
2022-07-29T17:12:21.212Z,26.52
2022-07-29T17:17:13.664Z,26.5
2022-07-29T17:22:19.006Z,26.51
2022-07-29T17:26:58.780Z,26.6
2022-07-29T17:31:51.108Z,26.61
2022-07-29T17:36:43.209Z,26.66
2022-07-29T17:41:35.881Z,26.7
2022-07-29T17:46:28.556Z,26.75
2022-07-29T17:51:21.106Z,26.83
2022-07-29T17:56:13.741Z,26.91
2022-07-29T18:01:06.457Z,26.87
2022-07-29T18:05:58.870Z,26.85
2022-07-29T18:10:51.295Z,26.92
2022-07-29T18:15:43.625Z,26.92
2022-07-29T18:20:35.950Z,26.93
2022-07-29T18:25:28.595Z,26.96
2022-07-29T18:30:21.129Z,26.85
2022-07-29T18:35:13.586Z,26.84
2022-07-29T18:40:06.102Z,26.77
2022-07-29T18:44:58.891Z,26.76
2022-07-29T18:49:51.403Z,26.71
2022-07-29T18:54:43.760Z,26.54
2022-07-29T18:59:36.201Z,26.62
2022-07-29T19:04:29.133Z,26.57
2022-07-29T19:14:13.715Z,26.55
2022-07-29T19:23:59.428Z,26.46
2022-07-29T19:33:44.154Z,26.36
2022-07-29T19:38:31.966Z,26.47
2022-07-29T19:43:50.246Z,26.47
2022-07-29T19:48:18.051Z,26.42
2022-07-29T19:53:10.671Z,26.41
2022-07-29T19:58:03.093Z,26.4
2022-07-29T20:02:55.761Z,26.34
2022-07-29T20:07:48.199Z,26.33
2022-07-29T20:12:40.889Z,26.32
2022-07-29T20:17:34.103Z,26.27
2022-07-29T20:22:26.762Z,26.23
2022-07-29T20:32:12.511Z,26.22
2022-07-29T20:41:57.459Z,26.25
2022-07-29T20:51:43.390Z,26.2
2022-07-29T20:56:35.124Z,26.21
2022-07-29T21:01:27.862Z,26.18
2022-07-29T21:06:20.607Z,26.19
2022-07-29T21:11:13.041Z,26.18
2022-07-29T21:16:09.407Z,26.15
2022-07-29T21:20:58.382Z,26.12
2022-07-29T21:25:51.046Z,26.1
2022-07-29T21:30:43.642Z,26.08
2022-07-29T21:36:03.820Z,26.04
2022-07-29T21:40:28.494Z,26.05
2022-07-29T21:45:21.228Z,26.05
2022-07-29T21:50:13.818Z,26.02
2022-07-29T21:55:06.284Z,26.01
2022-07-29T22:00:02.610Z,26.01
2022-07-29T22:04:51.699Z,25.94
2022-07-29T22:09:44.467Z,25.93
2022-07-29T22:14:37.141Z,25.94
2022-07-29T22:19:30.044Z,25.94
2022-07-29T22:24:22.568Z,25.92
2022-07-29T22:29:15.499Z,25.9
2022-07-29T22:34:07.935Z,25.93
2022-07-29T22:39:00.591Z,25.91
2022-07-29T22:43:53.138Z,25.89
2022-07-29T22:48:45.717Z,25.89
2022-07-29T22:53:38.263Z,25.91
2022-07-29T22:58:30.769Z,25.91
2022-07-29T23:03:23.374Z,25.9
2022-07-29T23:08:15.962Z,25.88
2022-07-29T23:13:08.685Z,25.88
2022-07-29T23:18:01.306Z,25.87
2022-07-29T23:22:53.752Z,25.86
2022-07-29T23:27:46.298Z,25.85
2022-07-29T23:32:39.139Z,25.86
2022-07-29T23:37:31.455Z,25.86
2022-07-29T23:42:24.193Z,25.82
2022-07-29T23:47:16.270Z,25.83
2022-07-29T23:52:08.572Z,25.81
2022-07-29T23:57:01.410Z,25.8
